sensor_id;sensor_type;location;lat;lon;timestamp;P1;durP1;ratioP1;P2;durP2;ratioP2
1376;SDS011;682;52.502;13.488;2022-07-06T00:01:33;2.00;;;1.53;;
1376;SDS011;682;52.502;13.488;2022-07-06T00:04:01;2.40;;;1.40;;
1376;SDS011;682;52.502;13.488;2022-07-06T00:06:32;4.20;;;1.80;;
1376;SDS011;682;52.502;13.488;2022-07-06T00:09:00;1.80;;;1.70;;
1376;SDS011;682;52.502;13.488;2022-07-06T00:11:33;3.40;;;1.60;;
1376;SDS011;682;52.502;13.488;2022-07-06T00:14:01;2.60;;;1.40;;
1376;SDS011;682;52.502;13.488;2022-07-06T00:16:29;1.73;;;1.37;;
1376;SDS011;682;52.502;13.488;2022-07-06T00:18:59;2.93;;;1.30;;
1376;SDS011;682;52.502;13.488;2022-07-06T00:21:26;2.43;;;1.40;;
1376;SDS011;682;52.502;13.488;2022-07-06T00:23:54;2.07;;;1.87;;
1376;SDS011;682;52.502;13.488;2022-07-06T00:26:23;1.90;;;1.53;;
1376;SDS011;682;52.502;13.488;2022-07-06T00:28:54;6.30;;;1.80;;
1376;SDS011;682;52.502;13.488;2022-07-06T00:31:21;3.60;;;2.00;;
1376;SDS011;682;52.502;13.488;2022-07-06T00:33:49;3.00;;;1.57;;
1376;SDS011;682;52.502;13.488;2022-07-06T00:36:19;2.17;;;1.63;;
1376;SDS011;682;52.502;13.488;2022-07-06T00:38:46;3.77;;;1.53;;
1376;SDS011;682;52.502;13.488;2022-07-06T00:41:24;4.83;;;1.47;;
1376;SDS011;682;52.502;13.488;2022-07-06T00:43:52;1.70;;;1.30;;
1376;SDS011;682;52.502;13.488;2022-07-06T00:46:22;1.00;;;0.90;;
1376;SDS011;682;52.502;13.488;2022-07-06T00:48:53;3.57;;;1.20;;
1376;SDS011;682;52.502;13.488;2022-07-06T00:51:22;2.03;;;1.50;;
1376;SDS011;682;52.502;13.488;2022-07-06T00:53:53;1.97;;;1.50;;
1376;SDS011;682;52.502;13.488;2022-07-06T00:56:21;8.90;;;2.47;;
1376;SDS011;682;52.502;13.488;2022-07-06T00:58:48;3.50;;;1.50;;
1376;SDS011;682;52.502;13.488;2022-07-06T01:01:20;3.83;;;1.50;;
1376;SDS011;682;52.502;13.488;2022-07-06T01:03:49;3.80;;;2.30;;
1376;SDS011;682;52.502;13.488;2022-07-06T01:06:20;2.50;;;1.90;;
1376;SDS011;682;52.502;13.488;2022-07-06T01:08:58;1.70;;;1.30;;
1376;SDS011;682;52.502;13.488;2022-07-06T01:11:25;3.83;;;1.93;;
1376;SDS011;682;52.502;13.488;2022-07-06T01:13:52;1.80;;;1.23;;
1376;SDS011;682;52.502;13.488;2022-07-06T01:16:22;4.03;;;1.40;;
1376;SDS011;682;52.502;13.488;2022-07-06T01:18:49;1.90;;;1.80;;
1376;SDS011;682;52.502;13.488;2022-07-06T01:21:29;5.17;;;1.63;;
1376;SDS011;682;52.502;13.488;2022-07-06T01:23:56;3.23;;;2.23;;
1376;SDS011;682;52.502;13.488;2022-07-06T01:26:28;3.90;;;2.00;;
1376;SDS011;682;52.502;13.488;2022-07-06T01:28:55;2.60;;;1.60;;
1376;SDS011;682;52.502;13.488;2022-07-06T01:31:23;1.73;;;1.63;;
1376;SDS011;682;52.502;13.488;2022-07-06T01:33:53;4.13;;;1.70;;
1376;SDS011;682;52.502;13.488;2022-07-06T01:36:24;4.40;;;2.00;;
1376;SDS011;682;52.502;13.488;2022-07-06T01:38:51;3.60;;;1.90;;
1376;SDS011;682;52.502;13.488;2022-07-06T01:41:21;2.43;;;1.90;;
1376;SDS011;682;52.502;13.488;2022-07-06T01:43:49;1.70;;;1.50;;
1376;SDS011;682;52.502;13.488;2022-07-06T01:46:16;1.93;;;1.63;;
1376;SDS011;682;52.502;13.488;2022-07-06T01:48:44;1.90;;;1.50;;
1376;SDS011;682;52.502;13.488;2022-07-06T01:51:13;3.20;;;1.60;;
1376;SDS011;682;52.502;13.488;2022-07-06T01:53:44;3.60;;;1.60;;
1376;SDS011;682;52.502;13.488;2022-07-06T01:56:11;2.60;;;1.90;;
1376;SDS011;682;52.502;13.488;2022-07-06T01:58:39;1.70;;;1.57;;
1376;SDS011;682;52.502;13.488;2022-07-06T02:01:09;1.97;;;1.70;;
1376;SDS011;682;52.502;13.488;2022-07-06T02:03:36;5.00;;;1.60;;
1376;SDS011;682;52.502;13.488;2022-07-06T02:06:08;2.60;;;1.70;;
1376;SDS011;682;52.502;13.488;2022-07-06T02:08:37;4.37;;;2.07;;
1376;SDS011;682;52.502;13.488;2022-07-06T02:11:12;2.67;;;1.47;;
1376;SDS011;682;52.502;13.488;2022-07-06T02:13:43;1.87;;;1.67;;
1376;SDS011;682;52.502;13.488;2022-07-06T02:16:10;6.10;;;1.90;;
1376;SDS011;682;52.502;13.488;2022-07-06T02:18:37;2.80;;;1.80;;
1376;SDS011;682;52.502;13.488;2022-07-06T02:21:08;1.20;;;1.10;;
1376;SDS011;682;52.502;13.488;2022-07-06T02:23:35;2.40;;;1.57;;
1376;SDS011;682;52.502;13.488;2022-07-06T02:26:03;5.60;;;2.07;;
1376;SDS011;682;52.502;13.488;2022-07-06T02:28:32;3.33;;;1.80;;
1376;SDS011;682;52.502;13.488;2022-07-06T02:30:59;1.70;;;1.60;;
1376;SDS011;682;52.502;13.488;2022-07-06T02:33:30;2.87;;;1.70;;
1376;SDS011;682;52.502;13.488;2022-07-06T02:35:57;3.03;;;2.00;;
1376;SDS011;682;52.502;13.488;2022-07-06T02:38:28;2.00;;;1.80;;
1376;SDS011;682;52.502;13.488;2022-07-06T02:40:55;2.50;;;2.03;;
1376;SDS011;682;52.502;13.488;2022-07-06T02:43:23;3.23;;;1.97;;
1376;SDS011;682;52.502;13.488;2022-07-06T02:45:51;2.03;;;1.93;;
1376;SDS011;682;52.502;13.488;2022-07-06T02:48:29;1.90;;;1.70;;
1376;SDS011;682;52.502;13.488;2022-07-06T02:51:03;2.90;;;2.30;;
1376;SDS011;682;52.502;13.488;2022-07-06T02:53:30;3.50;;;2.40;;
1376;SDS011;682;52.502;13.488;2022-07-06T02:55:57;4.43;;;3.37;;
1376;SDS011;682;52.502;13.488;2022-07-06T02:58:25;5.90;;;2.73;;
1376;SDS011;682;52.502;13.488;2022-07-06T03:00:53;3.63;;;2.80;;
1376;SDS011;682;52.502;13.488;2022-07-06T03:03:23;3.90;;;2.73;;
1376;SDS011;682;52.502;13.488;2022-07-06T03:05:50;4.30;;;3.37;;
1376;SDS011;682;52.502;13.488;2022-07-06T03:08:23;3.90;;;2.93;;
1376;SDS011;682;52.502;13.488;2022-07-06T03:10:50;4.23;;;3.43;;
1376;SDS011;682;52.502;13.488;2022-07-06T03:13:17;3.70;;;3.30;;
1376;SDS011;682;52.502;13.488;2022-07-06T03:15:48;3.07;;;2.80;;
1376;SDS011;682;52.502;13.488;2022-07-06T03:18:17;4.13;;;2.83;;
1376;SDS011;682;52.502;13.488;2022-07-06T03:20:51;3.00;;;2.80;;
1376;SDS011;682;52.502;13.488;2022-07-06T03:23:23;3.83;;;2.80;;
1376;SDS011;682;52.502;13.488;2022-07-06T03:25:50;5.10;;;3.60;;
1376;SDS011;682;52.502;13.488;2022-07-06T03:28:17;3.13;;;2.50;;
1376;SDS011;682;52.502;13.488;2022-07-06T03:30:48;3.13;;;2.80;;
1376;SDS011;682;52.502;13.488;2022-07-06T03:33:16;4.53;;;3.73;;
1376;SDS011;682;52.502;13.488;2022-07-06T03:35:48;5.47;;;3.03;;
1376;SDS011;682;52.502;13.488;2022-07-06T03:38:15;7.90;;;6.83;;
1376;SDS011;682;52.502;13.488;2022-07-06T03:40:43;3.83;;;3.43;;
1376;SDS011;682;52.502;13.488;2022-07-06T03:43:11;3.97;;;2.93;;
1376;SDS011;682;52.502;13.488;2022-07-06T03:45:42;3.47;;;3.13;;
1376;SDS011;682;52.502;13.488;2022-07-06T03:48:10;4.20;;;3.57;;
1376;SDS011;682;52.502;13.488;2022-07-06T03:50:41;4.27;;;3.70;;
1376;SDS011;682;52.502;13.488;2022-07-06T03:53:09;4.20;;;3.37;;
1376;SDS011;682;52.502;13.488;2022-07-06T03:55:43;5.30;;;3.07;;
1376;SDS011;682;52.502;13.488;2022-07-06T03:58:30;4.67;;;4.00;;
1376;SDS011;682;52.502;13.488;2022-07-06T04:01:01;5.70;;;3.40;;
1376;SDS011;682;52.502;13.488;2022-07-06T04:03:30;2.70;;;2.50;;
1376;SDS011;682;52.502;13.488;2022-07-06T04:05:58;3.67;;;2.50;;
1376;SDS011;682;52.502;13.488;2022-07-06T04:08:30;3.57;;;3.00;;
1376;SDS011;682;52.502;13.488;2022-07-06T04:10:57;3.77;;;3.37;;
1376;SDS011;682;52.502;13.488;2022-07-06T04:13:43;4.10;;;2.77;;
1376;SDS011;682;52.502;13.488;2022-07-06T04:16:13;4.20;;;3.03;;
1376;SDS011;682;52.502;13.488;2022-07-06T04:18:44;3.70;;;2.70;;
1376;SDS011;682;52.502;13.488;2022-07-06T04:21:16;3.23;;;2.23;;
1376;SDS011;682;52.502;13.488;2022-07-06T04:23:42;3.20;;;2.90;;
1376;SDS011;682;52.502;13.488;2022-07-06T04:26:13;2.40;;;2.20;;
1376;SDS011;682;52.502;13.488;2022-07-06T04:28:40;3.70;;;2.37;;
1376;SDS011;682;52.502;13.488;2022-07-06T04:31:13;4.20;;;2.20;;
1376;SDS011;682;52.502;13.488;2022-07-06T04:33:54;3.43;;;2.40;;
1376;SDS011;682;52.502;13.488;2022-07-06T04:36:24;2.83;;;2.30;;
1376;SDS011;682;52.502;13.488;2022-07-06T04:38:52;4.13;;;2.80;;
1376;SDS011;682;52.502;13.488;2022-07-06T04:41:25;5.40;;;4.07;;
1376;SDS011;682;52.502;13.488;2022-07-06T04:43:52;4.20;;;2.30;;
1376;SDS011;682;52.502;13.488;2022-07-06T04:46:24;3.00;;;2.10;;
1376;SDS011;682;52.502;13.488;2022-07-06T04:48:53;3.30;;;1.87;;
1376;SDS011;682;52.502;13.488;2022-07-06T04:51:30;2.40;;;2.00;;
1376;SDS011;682;52.502;13.488;2022-07-06T04:54:06;3.07;;;2.37;;
1376;SDS011;682;52.502;13.488;2022-07-06T04:56:34;3.73;;;2.10;;
1376;SDS011;682;52.502;13.488;2022-07-06T04:59:05;4.90;;;2.37;;
1376;SDS011;682;52.502;13.488;2022-07-06T05:01:33;4.37;;;2.30;;
1376;SDS011;682;52.502;13.488;2022-07-06T05:04:04;4.23;;;2.30;;
1376;SDS011;682;52.502;13.488;2022-07-06T05:06:33;2.80;;;2.27;;
1376;SDS011;682;52.502;13.488;2022-07-06T05:09:00;2.20;;;1.53;;
1376;SDS011;682;52.502;13.488;2022-07-06T05:11:29;2.73;;;1.70;;
1376;SDS011;682;52.502;13.488;2022-07-06T05:13:56;4.97;;;2.37;;
1376;SDS011;682;52.502;13.488;2022-07-06T05:16:23;5.87;;;1.70;;
1376;SDS011;682;52.502;13.488;2022-07-06T05:18:50;3.50;;;1.63;;
1376;SDS011;682;52.502;13.488;2022-07-06T05:21:17;5.07;;;2.57;;
1376;SDS011;682;52.502;13.488;2022-07-06T05:23:56;3.77;;;2.23;;
1376;SDS011;682;52.502;13.488;2022-07-06T05:26:23;3.33;;;2.23;;
1376;SDS011;682;52.502;13.488;2022-07-06T05:28:57;2.87;;;2.57;;
1376;SDS011;682;52.502;13.488;2022-07-06T05:31:25;2.27;;;2.00;;
1376;SDS011;682;52.502;13.488;2022-07-06T05:34:04;6.70;;;2.30;;
1376;SDS011;682;52.502;13.488;2022-07-06T05:36:34;2.60;;;1.60;;
1376;SDS011;682;52.502;13.488;2022-07-06T05:39:02;2.40;;;1.63;;
1376;SDS011;682;52.502;13.488;2022-07-06T05:41:34;5.40;;;2.37;;
1376;SDS011;682;52.502;13.488;2022-07-06T05:44:03;2.50;;;1.57;;
1376;SDS011;682;52.502;13.488;2022-07-06T05:46:31;3.70;;;2.13;;
1376;SDS011;682;52.502;13.488;2022-07-06T05:48:57;3.57;;;2.10;;
1376;SDS011;682;52.502;13.488;2022-07-06T05:51:44;3.30;;;2.30;;
1376;SDS011;682;52.502;13.488;2022-07-06T05:54:14;12.80;;;6.50;;
1376;SDS011;682;52.502;13.488;2022-07-06T05:56:44;3.10;;;1.87;;
1376;SDS011;682;52.502;13.488;2022-07-06T05:59:11;7.23;;;3.03;;
1376;SDS011;682;52.502;13.488;2022-07-06T06:01:44;7.20;;;2.83;;
1376;SDS011;682;52.502;13.488;2022-07-06T06:04:10;2.17;;;1.70;;
1376;SDS011;682;52.502;13.488;2022-07-06T06:06:38;2.63;;;1.83;;
1376;SDS011;682;52.502;13.488;2022-07-06T06:09:10;3.07;;;2.27;;
1376;SDS011;682;52.502;13.488;2022-07-06T06:11:41;1.90;;;1.80;;
1376;SDS011;682;52.502;13.488;2022-07-06T06:14:08;2.50;;;1.97;;
1376;SDS011;682;52.502;13.488;2022-07-06T06:16:35;4.13;;;1.90;;
1376;SDS011;682;52.502;13.488;2022-07-06T06:19:03;2.80;;;1.90;;
1376;SDS011;682;52.502;13.488;2022-07-06T06:21:29;4.13;;;2.60;;
1376;SDS011;682;52.502;13.488;2022-07-06T06:23:57;3.93;;;2.73;;
1376;SDS011;682;52.502;13.488;2022-07-06T06:26:25;4.00;;;2.50;;
1376;SDS011;682;52.502;13.488;2022-07-06T06:28:52;4.30;;;2.50;;
1376;SDS011;682;52.502;13.488;2022-07-06T06:31:24;2.47;;;1.97;;
1376;SDS011;682;52.502;13.488;2022-07-06T06:33:54;2.77;;;2.30;;
1376;SDS011;682;52.502;13.488;2022-07-06T06:36:23;5.80;;;2.30;;
1376;SDS011;682;52.502;13.488;2022-07-06T06:38:54;2.60;;;1.53;;
1376;SDS011;682;52.502;13.488;2022-07-06T06:41:25;3.30;;;2.40;;
1376;SDS011;682;52.502;13.488;2022-07-06T06:43:52;2.60;;;1.87;;
1376;SDS011;682;52.502;13.488;2022-07-06T06:46:24;3.93;;;2.30;;
1376;SDS011;682;52.502;13.488;2022-07-06T06:48:51;3.23;;;2.00;;
1376;SDS011;682;52.502;13.488;2022-07-06T06:51:18;3.10;;;1.70;;
1376;SDS011;682;52.502;13.488;2022-07-06T06:53:49;3.83;;;2.33;;
1376;SDS011;682;52.502;13.488;2022-07-06T06:56:20;4.03;;;1.87;;
1376;SDS011;682;52.502;13.488;2022-07-06T06:58:51;2.23;;;1.87;;
1376;SDS011;682;52.502;13.488;2022-07-06T07:01:21;3.37;;;1.90;;
1376;SDS011;682;52.502;13.488;2022-07-06T07:03:50;2.40;;;1.90;;
1376;SDS011;682;52.502;13.488;2022-07-06T07:06:17;5.33;;;2.60;;
1376;SDS011;682;52.502;13.488;2022-07-06T07:08:46;2.70;;;1.80;;
1376;SDS011;682;52.502;13.488;2022-07-06T07:11:13;2.80;;;1.97;;
1376;SDS011;682;52.502;13.488;2022-07-06T07:13:45;3.73;;;1.83;;
1376;SDS011;682;52.502;13.488;2022-07-06T07:16:12;3.10;;;1.30;;
1376;SDS011;682;52.502;13.488;2022-07-06T07:18:49;2.80;;;1.80;;
1376;SDS011;682;52.502;13.488;2022-07-06T07:21:16;2.83;;;1.70;;
1376;SDS011;682;52.502;13.488;2022-07-06T07:23:44;3.60;;;2.10;;
1376;SDS011;682;52.502;13.488;2022-07-06T07:26:13;3.30;;;1.90;;
1376;SDS011;682;52.502;13.488;2022-07-06T07:28:51;2.37;;;1.83;;
1376;SDS011;682;52.502;13.488;2022-07-06T07:31:22;3.53;;;2.20;;
1376;SDS011;682;52.502;13.488;2022-07-06T07:33:52;3.43;;;2.30;;
1376;SDS011;682;52.502;13.488;2022-07-06T07:36:27;3.53;;;1.97;;
1376;SDS011;682;52.502;13.488;2022-07-06T07:38:54;2.30;;;1.67;;
1376;SDS011;682;52.502;13.488;2022-07-06T07:41:26;3.73;;;1.60;;
1376;SDS011;682;52.502;13.488;2022-07-06T07:43:54;4.00;;;2.27;;
1376;SDS011;682;52.502;13.488;2022-07-06T07:46:24;3.23;;;1.93;;
1376;SDS011;682;52.502;13.488;2022-07-06T07:48:52;2.50;;;1.50;;
1376;SDS011;682;52.502;13.488;2022-07-06T07:51:24;2.30;;;1.53;;
1376;SDS011;682;52.502;13.488;2022-07-06T07:53:51;5.07;;;2.07;;
1376;SDS011;682;52.502;13.488;2022-07-06T07:56:18;2.97;;;1.40;;
1376;SDS011;682;52.502;13.488;2022-07-06T07:59:07;1.87;;;1.37;;
1376;SDS011;682;52.502;13.488;2022-07-06T08:01:47;1.80;;;1.17;;
1376;SDS011;682;52.502;13.488;2022-07-06T08:04:16;1.80;;;1.33;;
1376;SDS011;682;52.502;13.488;2022-07-06T08:06:47;3.10;;;1.63;;
1376;SDS011;682;52.502;13.488;2022-07-06T08:09:16;2.27;;;1.60;;
1376;SDS011;682;52.502;13.488;2022-07-06T08:11:44;4.30;;;1.60;;
1376;SDS011;682;52.502;13.488;2022-07-06T08:14:15;1.70;;;1.00;;
1376;SDS011;682;52.502;13.488;2022-07-06T08:16:44;3.73;;;1.70;;
1376;SDS011;682;52.502;13.488;2022-07-06T08:19:14;2.73;;;1.50;;
1376;SDS011;682;52.502;13.488;2022-07-06T08:21:44;3.13;;;1.23;;
1376;SDS011;682;52.502;13.488;2022-07-06T08:24:13;2.60;;;1.20;;
1376;SDS011;682;52.502;13.488;2022-07-06T08:26:44;3.00;;;1.23;;
1376;SDS011;682;52.502;13.488;2022-07-06T08:29:12;3.03;;;1.60;;
1376;SDS011;682;52.502;13.488;2022-07-06T08:31:45;1.67;;;1.33;;
1376;SDS011;682;52.502;13.488;2022-07-06T08:34:12;3.70;;;1.40;;
1376;SDS011;682;52.502;13.488;2022-07-06T08:36:39;4.73;;;1.80;;
1376;SDS011;682;52.502;13.488;2022-07-06T08:39:10;1.97;;;1.37;;
1376;SDS011;682;52.502;13.488;2022-07-06T08:41:40;3.13;;;1.83;;
1376;SDS011;682;52.502;13.488;2022-07-06T08:44:14;4.27;;;1.47;;
1376;SDS011;682;52.502;13.488;2022-07-06T08:46:44;4.13;;;1.80;;
1376;SDS011;682;52.502;13.488;2022-07-06T08:49:15;3.60;;;1.30;;
1376;SDS011;682;52.502;13.488;2022-07-06T08:51:44;2.30;;;1.70;;
1376;SDS011;682;52.502;13.488;2022-07-06T08:54:12;2.17;;;1.67;;
1376;SDS011;682;52.502;13.488;2022-07-06T08:56:47;4.07;;;1.27;;
1376;SDS011;682;52.502;13.488;2022-07-06T08:59:16;3.80;;;1.43;;
1376;SDS011;682;52.502;13.488;2022-07-06T09:01:45;3.13;;;1.73;;
1376;SDS011;682;52.502;13.488;2022-07-06T09:04:15;1.70;;;1.30;;
1376;SDS011;682;52.502;13.488;2022-07-06T09:06:45;1.20;;;0.93;;
1376;SDS011;682;52.502;13.488;2022-07-06T09:09:17;2.60;;;1.13;;
1376;SDS011;682;52.502;13.488;2022-07-06T09:11:51;3.00;;;1.10;;
1376;SDS011;682;52.502;13.488;2022-07-06T09:14:34;3.30;;;1.17;;
1376;SDS011;682;52.502;13.488;2022-07-06T09:17:05;2.33;;;1.50;;
1376;SDS011;682;52.502;13.488;2022-07-06T09:19:37;1.77;;;1.13;;
1376;SDS011;682;52.502;13.488;2022-07-06T09:22:09;2.57;;;0.90;;
1376;SDS011;682;52.502;13.488;2022-07-06T09:24:52;2.50;;;1.40;;
1376;SDS011;682;52.502;13.488;2022-07-06T09:27:36;1.77;;;1.03;;
1376;SDS011;682;52.502;13.488;2022-07-06T09:30:16;2.27;;;1.40;;
1376;SDS011;682;52.502;13.488;2022-07-06T09:32:55;3.93;;;1.47;;
1376;SDS011;682;52.502;13.488;2022-07-06T09:35:25;1.00;;;0.90;;
1376;SDS011;682;52.502;13.488;2022-07-06T09:38:05;2.47;;;1.07;;
1376;SDS011;682;52.502;13.488;2022-07-06T09:40:34;1.37;;;0.90;;
1376;SDS011;682;52.502;13.488;2022-07-06T09:43:25;2.70;;;1.17;;
1376;SDS011;682;52.502;13.488;2022-07-06T09:45:54;2.37;;;0.87;;
1376;SDS011;682;52.502;13.488;2022-07-06T09:48:28;1.27;;;0.83;;
1376;SDS011;682;52.502;13.488;2022-07-06T09:50:56;1.70;;;0.87;;
1376;SDS011;682;52.502;13.488;2022-07-06T09:53:27;2.43;;;1.00;;
1376;SDS011;682;52.502;13.488;2022-07-06T09:55:54;1.43;;;0.70;;
1376;SDS011;682;52.502;13.488;2022-07-06T09:58:26;1.40;;;0.80;;
1376;SDS011;682;52.502;13.488;2022-07-06T10:00:55;5.57;;;1.30;;
1376;SDS011;682;52.502;13.488;2022-07-06T10:03:23;1.30;;;1.20;;
1376;SDS011;682;52.502;13.488;2022-07-06T10:05:50;1.77;;;1.03;;
1376;SDS011;682;52.502;13.488;2022-07-06T10:08:17;3.53;;;1.10;;
1376;SDS011;682;52.502;13.488;2022-07-06T10:10:48;3.90;;;1.93;;
1376;SDS011;682;52.502;13.488;2022-07-06T10:13:16;5.63;;;3.40;;
1376;SDS011;682;52.502;13.488;2022-07-06T10:15:51;5.53;;;3.30;;
1376;SDS011;682;52.502;13.488;2022-07-06T10:18:33;2.93;;;2.30;;
1376;SDS011;682;52.502;13.488;2022-07-06T10:21:05;3.23;;;1.70;;
1376;SDS011;682;52.502;13.488;2022-07-06T10:23:37;4.63;;;1.70;;
1376;SDS011;682;52.502;13.488;2022-07-06T10:26:06;4.00;;;2.60;;
1376;SDS011;682;52.502;13.488;2022-07-06T10:28:39;4.03;;;3.03;;
1376;SDS011;682;52.502;13.488;2022-07-06T10:31:08;3.97;;;2.00;;
1376;SDS011;682;52.502;13.488;2022-07-06T10:36:29;2.77;;;1.27;;
1376;SDS011;682;52.502;13.488;2022-07-06T10:38:59;3.33;;;1.40;;
1376;SDS011;682;52.502;13.488;2022-07-06T10:41:48;2.47;;;1.40;;
1376;SDS011;682;52.502;13.488;2022-07-06T10:44:15;2.43;;;1.03;;
1376;SDS011;682;52.502;13.488;2022-07-06T10:46:53;3.27;;;1.17;;
1376;SDS011;682;52.502;13.488;2022-07-06T10:49:28;1.60;;;1.10;;
1376;SDS011;682;52.502;13.488;2022-07-06T10:52:05;2.37;;;1.30;;
1376;SDS011;682;52.502;13.488;2022-07-06T10:54:38;4.50;;;0.83;;
1376;SDS011;682;52.502;13.488;2022-07-06T10:57:08;1.93;;;1.03;;
1376;SDS011;682;52.502;13.488;2022-07-06T11:00:00;2.20;;;1.00;;
1376;SDS011;682;52.502;13.488;2022-07-06T11:02:30;1.57;;;1.10;;
1376;SDS011;682;52.502;13.488;2022-07-06T11:05:08;3.60;;;1.33;;
1376;SDS011;682;52.502;13.488;2022-07-06T11:08:09;6.00;;;1.10;;
1376;SDS011;682;52.502;13.488;2022-07-06T11:10:49;2.93;;;1.07;;
1376;SDS011;682;52.502;13.488;2022-07-06T11:13:26;1.47;;;1.00;;
1376;SDS011;682;52.502;13.488;2022-07-06T11:16:07;3.77;;;1.90;;
1376;SDS011;682;52.502;13.488;2022-07-06T11:19:06;1.80;;;1.37;;
1376;SDS011;682;52.502;13.488;2022-07-06T11:21:47;2.70;;;0.77;;
1376;SDS011;682;52.502;13.488;2022-07-06T11:24:35;2.73;;;0.80;;
1376;SDS011;682;52.502;13.488;2022-07-06T11:27:04;1.83;;;0.77;;
1376;SDS011;682;52.502;13.488;2022-07-06T11:29:36;7.50;;;1.90;;
1376;SDS011;682;52.502;13.488;2022-07-06T11:32:10;2.53;;;0.97;;
1376;SDS011;682;52.502;13.488;2022-07-06T11:34:48;6.30;;;1.40;;
1376;SDS011;682;52.502;13.488;2022-07-06T11:37:21;0.90;;;0.80;;
1376;SDS011;682;52.502;13.488;2022-07-06T11:40:08;4.00;;;1.00;;
1376;SDS011;682;52.502;13.488;2022-07-06T11:42:36;1.70;;;1.30;;
1376;SDS011;682;52.502;13.488;2022-07-06T11:45:05;1.90;;;1.00;;
1376;SDS011;682;52.502;13.488;2022-07-06T11:47:35;1.50;;;1.10;;
1376;SDS011;682;52.502;13.488;2022-07-06T11:50:05;0.90;;;0.70;;
1376;SDS011;682;52.502;13.488;2022-07-06T11:52:37;2.97;;;1.10;;
1376;SDS011;682;52.502;13.488;2022-07-06T11:55:04;1.67;;;0.93;;
1376;SDS011;682;52.502;13.488;2022-07-06T11:57:35;4.33;;;1.53;;
1376;SDS011;682;52.502;13.488;2022-07-06T12:00:03;2.10;;;1.20;;
1376;SDS011;682;52.502;13.488;2022-07-06T12:02:35;2.13;;;1.00;;
1376;SDS011;682;52.502;13.488;2022-07-06T12:05:03;2.03;;;0.67;;
1376;SDS011;682;52.502;13.488;2022-07-06T12:07:35;1.33;;;0.50;;
1376;SDS011;682;52.502;13.488;2022-07-06T12:10:09;1.17;;;0.50;;
1376;SDS011;682;52.502;13.488;2022-07-06T12:12:40;1.07;;;0.50;;
1376;SDS011;682;52.502;13.488;2022-07-06T12:15:08;6.30;;;1.10;;
1376;SDS011;682;52.502;13.488;2022-07-06T12:17:46;2.13;;;1.10;;
1376;SDS011;682;52.502;13.488;2022-07-06T12:20:15;2.90;;;0.77;;
1376;SDS011;682;52.502;13.488;2022-07-06T12:22:46;1.17;;;0.60;;
1376;SDS011;682;52.502;13.488;2022-07-06T12:25:28;1.73;;;0.70;;
1376;SDS011;682;52.502;13.488;2022-07-06T12:28:03;2.60;;;1.10;;
1376;SDS011;682;52.502;13.488;2022-07-06T12:30:45;1.97;;;1.07;;
1376;SDS011;682;52.502;13.488;2022-07-06T12:33:21;2.73;;;1.63;;
1376;SDS011;682;52.502;13.488;2022-07-06T12:35:49;2.73;;;1.40;;
1376;SDS011;682;52.502;13.488;2022-07-06T12:38:27;2.13;;;1.10;;
1376;SDS011;682;52.502;13.488;2022-07-06T12:41:03;2.70;;;1.50;;
1376;SDS011;682;52.502;13.488;2022-07-06T12:43:36;1.10;;;0.90;;
1376;SDS011;682;52.502;13.488;2022-07-06T12:46:26;1.50;;;1.20;;
1376;SDS011;682;52.502;13.488;2022-07-06T12:49:02;1.83;;;1.50;;
1376;SDS011;682;52.502;13.488;2022-07-06T12:51:56;1.47;;;0.80;;
1376;SDS011;682;52.502;13.488;2022-07-06T12:54:41;2.80;;;1.30;;
1376;SDS011;682;52.502;13.488;2022-07-06T12:57:16;1.60;;;1.10;;
1376;SDS011;682;52.502;13.488;2022-07-06T12:59:45;2.30;;;1.02;;
1376;SDS011;682;52.502;13.488;2022-07-06T13:02:17;1.53;;;0.87;;
1376;SDS011;682;52.502;13.488;2022-07-06T13:04:55;2.33;;;0.70;;
1376;SDS011;682;52.502;13.488;2022-07-06T13:07:23;1.57;;;0.87;;
1376;SDS011;682;52.502;13.488;2022-07-06T13:09:57;1.63;;;1.37;;
1376;SDS011;682;52.502;13.488;2022-07-06T13:12:25;2.23;;;1.17;;
1376;SDS011;682;52.502;13.488;2022-07-06T13:14:55;3.47;;;0.87;;
1376;SDS011;682;52.502;13.488;2022-07-06T13:17:22;3.40;;;0.83;;
1376;SDS011;682;52.502;13.488;2022-07-06T13:20:02;1.83;;;1.10;;
1376;SDS011;682;52.502;13.488;2022-07-06T13:25:15;1.73;;;1.00;;
1376;SDS011;682;52.502;13.488;2022-07-06T13:27:44;4.03;;;0.90;;
1376;SDS011;682;52.502;13.488;2022-07-06T13:30:12;4.53;;;1.20;;
1376;SDS011;682;52.502;13.488;2022-07-06T13:32:42;4.70;;;1.50;;
1376;SDS011;682;52.502;13.488;2022-07-06T13:35:13;0.80;;;0.50;;
1376;SDS011;682;52.502;13.488;2022-07-06T13:37:41;1.40;;;0.90;;
1376;SDS011;682;52.502;13.488;2022-07-06T13:40:17;1.83;;;0.97;;
1376;SDS011;682;52.502;13.488;2022-07-06T13:42:47;1.17;;;0.57;;
1376;SDS011;682;52.502;13.488;2022-07-06T13:45:15;1.23;;;0.80;;
1376;SDS011;682;52.502;13.488;2022-07-06T13:47:43;1.37;;;0.80;;
1376;SDS011;682;52.502;13.488;2022-07-06T13:50:19;1.30;;;1.07;;
1376;SDS011;682;52.502;13.488;2022-07-06T13:52:50;2.10;;;0.80;;
1376;SDS011;682;52.502;13.488;2022-07-06T13:55:24;1.43;;;0.97;;
1376;SDS011;682;52.502;13.488;2022-07-06T13:57:58;1.30;;;0.80;;
1376;SDS011;682;52.502;13.488;2022-07-06T14:00:32;3.00;;;1.70;;
1376;SDS011;682;52.502;13.488;2022-07-06T14:03:02;2.10;;;1.10;;
1376;SDS011;682;52.502;13.488;2022-07-06T14:05:35;2.93;;;1.17;;
1376;SDS011;682;52.502;13.488;2022-07-06T14:08:03;3.53;;;1.50;;
1376;SDS011;682;52.502;13.488;2022-07-06T14:10:36;6.50;;;0.80;;
1376;SDS011;682;52.502;13.488;2022-07-06T14:13:03;2.17;;;0.90;;
1376;SDS011;682;52.502;13.488;2022-07-06T14:15:29;1.77;;;0.70;;
1376;SDS011;682;52.502;13.488;2022-07-06T14:17:57;1.50;;;0.90;;
1376;SDS011;682;52.502;13.488;2022-07-06T14:20:25;2.80;;;0.80;;
1376;SDS011;682;52.502;13.488;2022-07-06T14:22:56;1.50;;;1.00;;
1376;SDS011;682;52.502;13.488;2022-07-06T14:25:23;2.03;;;1.10;;
1376;SDS011;682;52.502;13.488;2022-07-06T14:27:56;1.50;;;0.60;;
1376;SDS011;682;52.502;13.488;2022-07-06T14:30:22;2.20;;;1.00;;
1376;SDS011;682;52.502;13.488;2022-07-06T14:32:57;1.93;;;0.87;;
1376;SDS011;682;52.502;13.488;2022-07-06T14:35:24;3.27;;;2.37;;
1376;SDS011;682;52.502;13.488;2022-07-06T14:37:54;2.63;;;0.83;;
1376;SDS011;682;52.502;13.488;2022-07-06T14:40:23;2.00;;;1.67;;
1376;SDS011;682;52.502;13.488;2022-07-06T14:42:57;0.90;;;0.77;;
1376;SDS011;682;52.502;13.488;2022-07-06T14:45:24;4.43;;;0.90;;
1376;SDS011;682;52.502;13.488;2022-07-06T14:47:56;1.87;;;0.93;;
1376;SDS011;682;52.502;13.488;2022-07-06T14:50:25;2.72;;;0.90;;
1376;SDS011;682;52.502;13.488;2022-07-06T14:52:56;4.47;;;1.30;;
1376;SDS011;682;52.502;13.488;2022-07-06T14:55:23;1.20;;;0.60;;
1376;SDS011;682;52.502;13.488;2022-07-06T14:57:50;1.93;;;0.80;;
1376;SDS011;682;52.502;13.488;2022-07-06T15:00:22;2.60;;;1.20;;
1376;SDS011;682;52.502;13.488;2022-07-06T15:02:49;2.50;;;1.13;;
1376;SDS011;682;52.502;13.488;2022-07-06T15:05:19;3.27;;;1.37;;
1376;SDS011;682;52.502;13.488;2022-07-06T15:07:46;1.30;;;0.70;;
1376;SDS011;682;52.502;13.488;2022-07-06T15:10:16;1.73;;;0.90;;
1376;SDS011;682;52.502;13.488;2022-07-06T15:12:45;2.00;;;1.10;;
1376;SDS011;682;52.502;13.488;2022-07-06T15:15:21;1.90;;;1.00;;
1376;SDS011;682;52.502;13.488;2022-07-06T15:17:54;3.07;;;1.03;;
1376;SDS011;682;52.502;13.488;2022-07-06T15:20:22;3.60;;;1.50;;
1376;SDS011;682;52.502;13.488;2022-07-06T15:22:49;1.60;;;0.93;;
1376;SDS011;682;52.502;13.488;2022-07-06T15:25:22;3.63;;;1.73;;
1376;SDS011;682;52.502;13.488;2022-07-06T15:27:49;3.83;;;1.17;;
1376;SDS011;682;52.502;13.488;2022-07-06T15:30:21;5.20;;;1.20;;
1376;SDS011;682;52.502;13.488;2022-07-06T15:32:49;3.30;;;1.50;;
1376;SDS011;682;52.502;13.488;2022-07-06T15:35:26;4.80;;;2.90;;
1376;SDS011;682;52.502;13.488;2022-07-06T15:37:53;2.60;;;1.50;;
1376;SDS011;682;52.502;13.488;2022-07-06T15:40:26;5.30;;;2.00;;
1376;SDS011;682;52.502;13.488;2022-07-06T15:42:55;3.00;;;1.63;;
1376;SDS011;682;52.502;13.488;2022-07-06T15:45:24;3.20;;;0.77;;